Terminal Aerodrome Forecast
Issued by NWS

Home | Current Version | Previous Version | Text Only | Print | Product List | Glossary On
Versions: 1 2 3 4 5 6 7 8 9 10 11 12 13 14 15 16 17 18
000
FTUS45 KRIW 292000 AAA
TAFBPI
TAF AMD
KBPI 292003Z 2920/3018 16005KT P6SM FEW050 SCT150
     FM300200 35006KT P6SM SCT110 BKN200
     FM300900 VRB05KT P6SM VCFG SCT004
     FM301500 VRB06KT P6SM OVC009=

USA.gov is the U.S. government's official web portal to all federal, state and local government web resources and services.